sensor_id;sensor_type;location;lat;lon;timestamp;temperature;humidity
8105;DHT22;4095;48.942;9.104;2023-07-24T00:01:17;20.80;99.90
8105;DHT22;4095;48.942;9.104;2023-07-24T00:03:44;20.80;99.90
8105;DHT22;4095;48.942;9.104;2023-07-24T00:06:09;20.80;99.90
8105;DHT22;4095;48.942;9.104;2023-07-24T00:08:35;20.80;99.90
8105;DHT22;4095;48.942;9.104;2023-07-24T00:11:00;20.70;99.90
8105;DHT22;4095;48.942;9.104;2023-07-24T00:13:28;20.70;99.90
8105;DHT22;4095;48.942;9.104;2023-07-24T00:15:53;20.70;99.90
8105;DHT22;4095;48.942;9.104;2023-07-24T00:18:19;20.70;99.90
8105;DHT22;4095;48.942;9.104;2023-07-24T00:20:45;20.70;99.90
8105;DHT22;4095;48.942;9.104;2023-07-24T00:23:10;20.70;99.90
8105;DHT22;4095;48.942;9.104;2023-07-24T00:25:37;20.70;99.90
8105;DHT22;4095;48.942;9.104;2023-07-24T00:28:03;20.60;99.90
8105;DHT22;4095;48.942;9.104;2023-07-24T00:30:28;20.60;99.90
8105;DHT22;4095;48.942;9.104;2023-07-24T00:32:54;20.60;99.90
8105;DHT22;4095;48.942;9.104;2023-07-24T00:35:20;20.50;99.90
8105;DHT22;4095;48.942;9.104;2023-07-24T00:37:46;20.50;99.90
8105;DHT22;4095;48.942;9.104;2023-07-24T00:40:12;20.50;99.90
8105;DHT22;4095;48.942;9.104;2023-07-24T00:42:37;20.50;99.90
8105;DHT22;4095;48.942;9.104;2023-07-24T00:45:03;20.50;99.90
8105;DHT22;4095;48.942;9.104;2023-07-24T00:47:29;20.50;99.90
8105;DHT22;4095;48.942;9.104;2023-07-24T00:49:55;20.50;99.90
8105;DHT22;4095;48.942;9.104;2023-07-24T00:52:21;20.50;99.90
8105;DHT22;4095;48.942;9.104;2023-07-24T00:54:47;20.50;99.90
8105;DHT22;4095;48.942;9.104;2023-07-24T00:57:13;20.50;99.90
8105;DHT22;4095;48.942;9.104;2023-07-24T00:59:39;20.50;99.90
8105;DHT22;4095;48.942;9.104;2023-07-24T01:02:07;20.50;99.90
8105;DHT22;4095;48.942;9.104;2023-07-24T01:04:33;20.40;99.90
8105;DHT22;4095;48.942;9.104;2023-07-24T01:06:59;20.40;99.90
8105;DHT22;4095;48.942;9.104;2023-07-24T01:09:25;20.40;99.90
8105;DHT22;4095;48.942;9.104;2023-07-24T01:11:56;20.40;99.90
8105;DHT22;4095;48.942;9.104;2023-07-24T01:14:36;20.50;99.90
8105;DHT22;4095;48.942;9.104;2023-07-24T01:17:03;20.40;99.90
8105;DHT22;4095;48.942;9.104;2023-07-24T01:19:39;20.40;99.90
8105;DHT22;4095;48.942;9.104;2023-07-24T01:25:04;20.30;99.90
8105;DHT22;4095;48.942;9.104;2023-07-24T01:27:30;20.30;99.90
8105;DHT22;4095;48.942;9.104;2023-07-24T01:29:56;20.20;99.90
8105;DHT22;4095;48.942;9.104;2023-07-24T01:32:22;20.20;99.90
8105;DHT22;4095;48.942;9.104;2023-07-24T01:34:48;20.30;99.90
8105;DHT22;4095;48.942;9.104;2023-07-24T01:37:14;20.20;99.90
8105;DHT22;4095;48.942;9.104;2023-07-24T01:39:44;20.20;99.90
8105;DHT22;4095;48.942;9.104;2023-07-24T01:42:11;20.10;99.90
8105;DHT22;4095;48.942;9.104;2023-07-24T01:44:37;20.10;99.90
8105;DHT22;4095;48.942;9.104;2023-07-24T01:47:02;20.10;99.90
8105;DHT22;4095;48.942;9.104;2023-07-24T01:49:28;20.10;99.90
8105;DHT22;4095;48.942;9.104;2023-07-24T01:51:54;20.10;99.90
8105;DHT22;4095;48.942;9.104;2023-07-24T01:54:19;20.10;99.90
8105;DHT22;4095;48.942;9.104;2023-07-24T01:56:45;20.10;99.90
8105;DHT22;4095;48.942;9.104;2023-07-24T01:59:10;20.00;99.90
8105;DHT22;4095;48.942;9.104;2023-07-24T02:01:36;20.00;99.90
8105;DHT22;4095;48.942;9.104;2023-07-24T02:04:02;20.00;99.90
8105;DHT22;4095;48.942;9.104;2023-07-24T02:06:27;20.00;99.90
8105;DHT22;4095;48.942;9.104;2023-07-24T02:08:53;20.00;99.90
8105;DHT22;4095;48.942;9.104;2023-07-24T02:11:18;20.00;99.90
8105;DHT22;4095;48.942;9.104;2023-07-24T02:13:44;20.00;99.90
8105;DHT22;4095;48.942;9.104;2023-07-24T02:16:11;20.00;99.90
8105;DHT22;4095;48.942;9.104;2023-07-24T02:18:38;20.00;99.90
8105;DHT22;4095;48.942;9.104;2023-07-24T02:21:04;19.90;99.90
8105;DHT22;4095;48.942;9.104;2023-07-24T02:23:30;20.00;99.90
8105;DHT22;4095;48.942;9.104;2023-07-24T02:25:55;20.00;99.90
8105;DHT22;4095;48.942;9.104;2023-07-24T02:28:21;20.00;99.90
8105;DHT22;4095;48.942;9.104;2023-07-24T02:30:47;20.00;99.90
8105;DHT22;4095;48.942;9.104;2023-07-24T02:33:13;20.00;99.90
8105;DHT22;4095;48.942;9.104;2023-07-24T02:35:42;20.10;99.90
8105;DHT22;4095;48.942;9.104;2023-07-24T02:38:08;20.00;99.90
8105;DHT22;4095;48.942;9.104;2023-07-24T02:40:35;20.00;99.90
8105;DHT22;4095;48.942;9.104;2023-07-24T02:43:00;20.00;99.90
8105;DHT22;4095;48.942;9.104;2023-07-24T02:45:26;20.00;99.90
8105;DHT22;4095;48.942;9.104;2023-07-24T02:47:52;20.00;99.90
8105;DHT22;4095;48.942;9.104;2023-07-24T02:50:17;20.00;99.90
8105;DHT22;4095;48.942;9.104;2023-07-24T02:52:43;20.00;99.90
8105;DHT22;4095;48.942;9.104;2023-07-24T02:55:09;20.00;99.90
8105;DHT22;4095;48.942;9.104;2023-07-24T02:57:34;19.90;99.90
8105;DHT22;4095;48.942;9.104;2023-07-24T03:00:00;19.90;99.90
8105;DHT22;4095;48.942;9.104;2023-07-24T03:02:25;19.90;99.90
8105;DHT22;4095;48.942;9.104;2023-07-24T03:04:51;19.90;99.90
8105;DHT22;4095;48.942;9.104;2023-07-24T03:07:16;19.90;99.90
8105;DHT22;4095;48.942;9.104;2023-07-24T03:09:42;19.80;99.90
8105;DHT22;4095;48.942;9.104;2023-07-24T03:12:08;19.80;99.90
8105;DHT22;4095;48.942;9.104;2023-07-24T03:14:33;19.80;99.90
8105;DHT22;4095;48.942;9.104;2023-07-24T03:16:59;19.70;99.90
8105;DHT22;4095;48.942;9.104;2023-07-24T03:19:24;19.60;99.90
8105;DHT22;4095;48.942;9.104;2023-07-24T03:21:50;19.60;99.90
8105;DHT22;4095;48.942;9.104;2023-07-24T03:24:16;19.60;99.90
8105;DHT22;4095;48.942;9.104;2023-07-24T03:26:42;19.60;99.90
8105;DHT22;4095;48.942;9.104;2023-07-24T03:29:07;19.60;99.90
8105;DHT22;4095;48.942;9.104;2023-07-24T03:31:33;19.60;99.90
8105;DHT22;4095;48.942;9.104;2023-07-24T03:33:58;19.60;99.90
8105;DHT22;4095;48.942;9.104;2023-07-24T03:36:24;19.60;99.90
8105;DHT22;4095;48.942;9.104;2023-07-24T03:38:50;19.60;99.90
8105;DHT22;4095;48.942;9.104;2023-07-24T03:41:15;19.60;99.90
8105;DHT22;4095;48.942;9.104;2023-07-24T03:43:41;19.60;99.90
8105;DHT22;4095;48.942;9.104;2023-07-24T03:46:07;19.60;99.90
8105;DHT22;4095;48.942;9.104;2023-07-24T03:48:32;19.50;99.90
8105;DHT22;4095;48.942;9.104;2023-07-24T03:50:59;19.60;99.90
8105;DHT22;4095;48.942;9.104;2023-07-24T03:53:27;19.60;99.90
8105;DHT22;4095;48.942;9.104;2023-07-24T03:55:53;19.60;99.90
8105;DHT22;4095;48.942;9.104;2023-07-24T03:58:19;19.60;99.90
8105;DHT22;4095;48.942;9.104;2023-07-24T04:00:46;19.60;99.90
8105;DHT22;4095;48.942;9.104;2023-07-24T04:03:11;19.50;99.90
8105;DHT22;4095;48.942;9.104;2023-07-24T04:05:37;19.40;99.90
8105;DHT22;4095;48.942;9.104;2023-07-24T04:08:03;19.50;99.90
8105;DHT22;4095;48.942;9.104;2023-07-24T04:10:29;19.50;99.90
8105;DHT22;4095;48.942;9.104;2023-07-24T04:12:56;19.50;99.90
8105;DHT22;4095;48.942;9.104;2023-07-24T04:15:22;19.60;99.90
8105;DHT22;4095;48.942;9.104;2023-07-24T04:17:48;19.60;99.90
8105;DHT22;4095;48.942;9.104;2023-07-24T04:20:14;19.60;99.90
8105;DHT22;4095;48.942;9.104;2023-07-24T04:22:40;19.70;99.90
8105;DHT22;4095;48.942;9.104;2023-07-24T04:25:05;19.70;99.90
8105;DHT22;4095;48.942;9.104;2023-07-24T04:27:31;19.70;99.90
8105;DHT22;4095;48.942;9.104;2023-07-24T04:29:57;19.70;99.90
8105;DHT22;4095;48.942;9.104;2023-07-24T04:32:22;19.70;99.90
8105;DHT22;4095;48.942;9.104;2023-07-24T04:34:48;19.80;99.90
8105;DHT22;4095;48.942;9.104;2023-07-24T04:37:14;19.80;99.90
8105;DHT22;4095;48.942;9.104;2023-07-24T04:39:40;19.80;99.90
8105;DHT22;4095;48.942;9.104;2023-07-24T04:42:06;19.80;99.90
8105;DHT22;4095;48.942;9.104;2023-07-24T04:44:31;19.90;99.90
8105;DHT22;4095;48.942;9.104;2023-07-24T04:46:58;19.90;99.90
8105;DHT22;4095;48.942;9.104;2023-07-24T04:49:24;19.90;99.90
8105;DHT22;4095;48.942;9.104;2023-07-24T04:51:50;20.00;99.90
8105;DHT22;4095;48.942;9.104;2023-07-24T04:54:16;20.00;99.90
8105;DHT22;4095;48.942;9.104;2023-07-24T04:56:42;20.00;99.90
8105;DHT22;4095;48.942;9.104;2023-07-24T04:59:08;20.00;99.90
8105;DHT22;4095;48.942;9.104;2023-07-24T05:01:34;20.10;99.90
8105;DHT22;4095;48.942;9.104;2023-07-24T05:04:00;20.10;99.90
8105;DHT22;4095;48.942;9.104;2023-07-24T05:06:26;20.10;99.90
8105;DHT22;4095;48.942;9.104;2023-07-24T05:08:52;20.10;99.90
8105;DHT22;4095;48.942;9.104;2023-07-24T05:11:18;20.10;99.90
8105;DHT22;4095;48.942;9.104;2023-07-24T05:13:44;20.10;99.90
8105;DHT22;4095;48.942;9.104;2023-07-24T05:16:10;20.10;99.90
8105;DHT22;4095;48.942;9.104;2023-07-24T05:18:35;20.20;99.90
8105;DHT22;4095;48.942;9.104;2023-07-24T05:21:01;20.20;99.90
8105;DHT22;4095;48.942;9.104;2023-07-24T05:23:26;20.20;99.90
8105;DHT22;4095;48.942;9.104;2023-07-24T05:25:59;20.20;99.90
8105;DHT22;4095;48.942;9.104;2023-07-24T05:28:26;20.30;99.90
8105;DHT22;4095;48.942;9.104;2023-07-24T05:30:52;20.20;99.90
8105;DHT22;4095;48.942;9.104;2023-07-24T05:33:17;20.30;99.90
8105;DHT22;4095;48.942;9.104;2023-07-24T05:35:43;20.30;99.90
8105;DHT22;4095;48.942;9.104;2023-07-24T05:38:09;20.30;99.90
8105;DHT22;4095;48.942;9.104;2023-07-24T05:40:35;20.30;99.90
8105;DHT22;4095;48.942;9.104;2023-07-24T05:43:00;20.30;99.90
8105;DHT22;4095;48.942;9.104;2023-07-24T05:45:29;20.30;99.90
8105;DHT22;4095;48.942;9.104;2023-07-24T05:47:55;20.40;99.90
8105;DHT22;4095;48.942;9.104;2023-07-24T05:50:20;20.40;99.90
8105;DHT22;4095;48.942;9.104;2023-07-24T05:52:46;20.40;99.90
8105;DHT22;4095;48.942;9.104;2023-07-24T05:55:11;20.50;99.90
8105;DHT22;4095;48.942;9.104;2023-07-24T05:57:37;20.50;99.90
8105;DHT22;4095;48.942;9.104;2023-07-24T06:00:04;20.50;99.90
8105;DHT22;4095;48.942;9.104;2023-07-24T06:02:29;20.50;99.90
8105;DHT22;4095;48.942;9.104;2023-07-24T06:04:55;20.50;99.90
8105;DHT22;4095;48.942;9.104;2023-07-24T06:07:21;20.60;99.90
8105;DHT22;4095;48.942;9.104;2023-07-24T06:09:46;20.60;99.90
8105;DHT22;4095;48.942;9.104;2023-07-24T06:12:12;20.60;99.90
8105;DHT22;4095;48.942;9.104;2023-07-24T06:14:37;20.60;99.90
8105;DHT22;4095;48.942;9.104;2023-07-24T06:17:03;20.60;99.90
8105;DHT22;4095;48.942;9.104;2023-07-24T06:19:29;20.70;99.90
8105;DHT22;4095;48.942;9.104;2023-07-24T06:21:55;20.80;99.90
8105;DHT22;4095;48.942;9.104;2023-07-24T06:24:20;20.80;99.90
8105;DHT22;4095;48.942;9.104;2023-07-24T06:26:46;20.90;99.90
8105;DHT22;4095;48.942;9.104;2023-07-24T06:29:11;20.90;99.90
8105;DHT22;4095;48.942;9.104;2023-07-24T06:31:37;20.90;99.90
8105;DHT22;4095;48.942;9.104;2023-07-24T06:34:02;20.90;99.90
8105;DHT22;4095;48.942;9.104;2023-07-24T06:36:28;21.00;99.90
8105;DHT22;4095;48.942;9.104;2023-07-24T06:38:54;21.00;99.90
8105;DHT22;4095;48.942;9.104;2023-07-24T06:41:19;21.00;99.90
8105;DHT22;4095;48.942;9.104;2023-07-24T06:43:46;21.00;99.90
8105;DHT22;4095;48.942;9.104;2023-07-24T06:46:12;21.00;99.90
8105;DHT22;4095;48.942;9.104;2023-07-24T06:48:38;21.10;99.90
8105;DHT22;4095;48.942;9.104;2023-07-24T06:51:03;21.10;99.90
8105;DHT22;4095;48.942;9.104;2023-07-24T06:53:29;21.10;99.90
8105;DHT22;4095;48.942;9.104;2023-07-24T06:55:54;21.20;99.90
8105;DHT22;4095;48.942;9.104;2023-07-24T06:58:20;21.20;99.90
8105;DHT22;4095;48.942;9.104;2023-07-24T07:00:45;21.30;99.90
8105;DHT22;4095;48.942;9.104;2023-07-24T07:03:11;21.30;99.90
8105;DHT22;4095;48.942;9.104;2023-07-24T07:05:37;21.40;99.90
8105;DHT22;4095;48.942;9.104;2023-07-24T07:08:02;21.50;99.90
8105;DHT22;4095;48.942;9.104;2023-07-24T07:10:28;21.50;99.90
8105;DHT22;4095;48.942;9.104;2023-07-24T07:12:55;21.60;99.90
8105;DHT22;4095;48.942;9.104;2023-07-24T07:15:21;21.60;99.90
8105;DHT22;4095;48.942;9.104;2023-07-24T07:17:46;21.60;99.90
8105;DHT22;4095;48.942;9.104;2023-07-24T07:20:12;21.60;99.90
8105;DHT22;4095;48.942;9.104;2023-07-24T07:22:38;21.60;99.90
8105;DHT22;4095;48.942;9.104;2023-07-24T07:25:04;21.60;99.90
8105;DHT22;4095;48.942;9.104;2023-07-24T07:27:29;21.60;99.90
8105;DHT22;4095;48.942;9.104;2023-07-24T07:29:55;21.60;99.90
8105;DHT22;4095;48.942;9.104;2023-07-24T07:32:20;21.70;99.90
8105;DHT22;4095;48.942;9.104;2023-07-24T07:34:46;21.70;99.90
8105;DHT22;4095;48.942;9.104;2023-07-24T07:37:12;21.70;99.90
8105;DHT22;4095;48.942;9.104;2023-07-24T07:39:37;21.70;99.90
8105;DHT22;4095;48.942;9.104;2023-07-24T07:42:03;21.70;99.90
8105;DHT22;4095;48.942;9.104;2023-07-24T07:44:29;21.70;99.90
8105;DHT22;4095;48.942;9.104;2023-07-24T07:46:54;21.70;99.90
8105;DHT22;4095;48.942;9.104;2023-07-24T07:49:20;21.70;99.90
8105;DHT22;4095;48.942;9.104;2023-07-24T07:51:45;21.70;99.90
8105;DHT22;4095;48.942;9.104;2023-07-24T07:54:11;21.70;99.90
8105;DHT22;4095;48.942;9.104;2023-07-24T07:56:36;21.60;99.90
8105;DHT22;4095;48.942;9.104;2023-07-24T07:59:02;21.60;99.90
8105;DHT22;4095;48.942;9.104;2023-07-24T08:01:27;21.50;99.90
8105;DHT22;4095;48.942;9.104;2023-07-24T08:03:53;21.50;99.90
8105;DHT22;4095;48.942;9.104;2023-07-24T08:06:19;21.60;99.90
8105;DHT22;4095;48.942;9.104;2023-07-24T08:08:44;21.50;99.90
8105;DHT22;4095;48.942;9.104;2023-07-24T08:11:10;21.60;99.90
8105;DHT22;4095;48.942;9.104;2023-07-24T08:13:35;21.60;99.90
8105;DHT22;4095;48.942;9.104;2023-07-24T08:16:01;21.60;99.90
8105;DHT22;4095;48.942;9.104;2023-07-24T08:18:31;21.60;99.90
8105;DHT22;4095;48.942;9.104;2023-07-24T08:20:56;21.60;99.90
8105;DHT22;4095;48.942;9.104;2023-07-24T08:23:22;21.60;99.90
8105;DHT22;4095;48.942;9.104;2023-07-24T08:25:55;21.60;99.90
8105;DHT22;4095;48.942;9.104;2023-07-24T08:28:21;21.60;99.90
8105;DHT22;4095;48.942;9.104;2023-07-24T08:30:55;21.60;99.90
8105;DHT22;4095;48.942;9.104;2023-07-24T08:33:21;21.60;99.90
8105;DHT22;4095;48.942;9.104;2023-07-24T08:35:46;21.60;99.90
8105;DHT22;4095;48.942;9.104;2023-07-24T08:38:12;21.60;99.90
8105;DHT22;4095;48.942;9.104;2023-07-24T08:40:37;21.60;99.90
8105;DHT22;4095;48.942;9.104;2023-07-24T08:43:04;21.60;99.90
8105;DHT22;4095;48.942;9.104;2023-07-24T08:45:30;21.60;99.90
8105;DHT22;4095;48.942;9.104;2023-07-24T08:47:57;21.60;99.90
8105;DHT22;4095;48.942;9.104;2023-07-24T08:50:24;21.60;99.90
8105;DHT22;4095;48.942;9.104;2023-07-24T08:52:51;21.60;99.90
8105;DHT22;4095;48.942;9.104;2023-07-24T08:55:17;21.70;99.90
8105;DHT22;4095;48.942;9.104;2023-07-24T08:57:42;21.70;99.90
8105;DHT22;4095;48.942;9.104;2023-07-24T09:00:08;21.80;99.90
8105;DHT22;4095;48.942;9.104;2023-07-24T09:02:35;21.90;99.90
8105;DHT22;4095;48.942;9.104;2023-07-24T09:05:01;22.00;99.90
8105;DHT22;4095;48.942;9.104;2023-07-24T09:07:27;22.00;99.90
8105;DHT22;4095;48.942;9.104;2023-07-24T09:09:54;22.20;99.90
8105;DHT22;4095;48.942;9.104;2023-07-24T09:12:21;22.20;99.90
8105;DHT22;4095;48.942;9.104;2023-07-24T09:14:47;22.30;99.90
8105;DHT22;4095;48.942;9.104;2023-07-24T09:17:13;22.30;99.90
8105;DHT22;4095;48.942;9.104;2023-07-24T09:19:38;22.30;99.90
8105;DHT22;4095;48.942;9.104;2023-07-24T09:22:11;22.50;99.90
8105;DHT22;4095;48.942;9.104;2023-07-24T09:24:38;22.70;99.90
8105;DHT22;4095;48.942;9.104;2023-07-24T09:27:05;22.80;99.90
8105;DHT22;4095;48.942;9.104;2023-07-24T09:29:33;22.80;99.90
8105;DHT22;4095;48.942;9.104;2023-07-24T09:32:00;22.90;99.90
8105;DHT22;4095;48.942;9.104;2023-07-24T09:34:26;23.00;99.90
8105;DHT22;4095;48.942;9.104;2023-07-24T09:36:51;23.00;99.90
8105;DHT22;4095;48.942;9.104;2023-07-24T09:39:25;23.00;99.90
8105;DHT22;4095;48.942;9.104;2023-07-24T09:41:50;23.10;99.90
8105;DHT22;4095;48.942;9.104;2023-07-24T09:44:16;23.10;99.90
8105;DHT22;4095;48.942;9.104;2023-07-24T09:46:43;23.10;99.90
8105;DHT22;4095;48.942;9.104;2023-07-24T09:49:09;23.10;99.90
8105;DHT22;4095;48.942;9.104;2023-07-24T09:51:35;23.10;99.90
8105;DHT22;4095;48.942;9.104;2023-07-24T09:54:26;23.20;99.90
8105;DHT22;4095;48.942;9.104;2023-07-24T09:56:53;23.20;99.90
8105;DHT22;4095;48.942;9.104;2023-07-24T09:59:21;23.30;99.90
8105;DHT22;4095;48.942;9.104;2023-07-24T10:01:47;23.20;99.90
8105;DHT22;4095;48.942;9.104;2023-07-24T10:04:15;23.20;99.90
8105;DHT22;4095;48.942;9.104;2023-07-24T10:06:42;23.20;99.90
8105;DHT22;4095;48.942;9.104;2023-07-24T10:09:09;23.10;99.90
8105;DHT22;4095;48.942;9.104;2023-07-24T10:11:35;23.10;99.90
8105;DHT22;4095;48.942;9.104;2023-07-24T10:14:01;23.10;99.90
8105;DHT22;4095;48.942;9.104;2023-07-24T10:16:27;23.00;99.90
8105;DHT22;4095;48.942;9.104;2023-07-24T10:18:52;23.00;99.90
8105;DHT22;4095;48.942;9.104;2023-07-24T10:21:18;23.10;99.90
8105;DHT22;4095;48.942;9.104;2023-07-24T10:23:51;23.10;99.90
8105;DHT22;4095;48.942;9.104;2023-07-24T10:26:23;23.00;99.90
8105;DHT22;4095;48.942;9.104;2023-07-24T10:28:50;22.90;99.90
8105;DHT22;4095;48.942;9.104;2023-07-24T10:31:25;22.90;99.90
8105;DHT22;4095;48.942;9.104;2023-07-24T10:33:55;22.80;99.90
8105;DHT22;4095;48.942;9.104;2023-07-24T10:36:22;22.80;99.90
8105;DHT22;4095;48.942;9.104;2023-07-24T10:38:56;22.70;99.90
8105;DHT22;4095;48.942;9.104;2023-07-24T10:41:22;22.60;99.90
8105;DHT22;4095;48.942;9.104;2023-07-24T10:43:52;22.60;99.90
8105;DHT22;4095;48.942;9.104;2023-07-24T10:46:19;22.50;99.90
8105;DHT22;4095;48.942;9.104;2023-07-24T10:48:46;22.50;99.90
8105;DHT22;4095;48.942;9.104;2023-07-24T10:51:13;22.40;99.90
8105;DHT22;4095;48.942;9.104;2023-07-24T10:53:46;22.30;99.90
8105;DHT22;4095;48.942;9.104;2023-07-24T10:56:13;22.30;99.90
8105;DHT22;4095;48.942;9.104;2023-07-24T10:58:39;22.20;99.90
8105;DHT22;4095;48.942;9.104;2023-07-24T11:01:05;22.20;99.90
8105;DHT22;4095;48.942;9.104;2023-07-24T11:03:31;22.10;99.90
8105;DHT22;4095;48.942;9.104;2023-07-24T11:05:58;22.00;99.90
8105;DHT22;4095;48.942;9.104;2023-07-24T11:08:24;22.00;99.90
8105;DHT22;4095;48.942;9.104;2023-07-24T11:10:51;21.90;99.90
8105;DHT22;4095;48.942;9.104;2023-07-24T11:13:22;21.90;99.90
8105;DHT22;4095;48.942;9.104;2023-07-24T11:15:49;21.90;99.90
8105;DHT22;4095;48.942;9.104;2023-07-24T11:18:14;21.80;99.90
8105;DHT22;4095;48.942;9.104;2023-07-24T11:20:52;21.80;99.90
8105;DHT22;4095;48.942;9.104;2023-07-24T11:23:18;21.80;99.90
8105;DHT22;4095;48.942;9.104;2023-07-24T11:25:45;21.90;99.90
8105;DHT22;4095;48.942;9.104;2023-07-24T11:28:13;21.90;99.90
8105;DHT22;4095;48.942;9.104;2023-07-24T11:30:39;21.90;99.90
8105;DHT22;4095;48.942;9.104;2023-07-24T11:33:07;21.90;99.90
8105;DHT22;4095;48.942;9.104;2023-07-24T11:35:33;21.90;99.90
8105;DHT22;4095;48.942;9.104;2023-07-24T11:38:01;21.90;99.90
8105;DHT22;4095;48.942;9.104;2023-07-24T11:40:43;21.90;99.90
8105;DHT22;4095;48.942;9.104;2023-07-24T11:43:17;21.90;99.90
8105;DHT22;4095;48.942;9.104;2023-07-24T11:45:44;21.90;99.90
8105;DHT22;4095;48.942;9.104;2023-07-24T11:48:10;21.90;99.90
8105;DHT22;4095;48.942;9.104;2023-07-24T11:50:47;22.00;99.90
8105;DHT22;4095;48.942;9.104;2023-07-24T11:53:29;22.20;99.90
8105;DHT22;4095;48.942;9.104;2023-07-24T11:55:56;22.30;99.90
8105;DHT22;4095;48.942;9.104;2023-07-24T11:58:25;22.40;99.90
8105;DHT22;4095;48.942;9.104;2023-07-24T12:00:51;22.40;99.90
8105;DHT22;4095;48.942;9.104;2023-07-24T12:03:35;22.40;99.90
8105;DHT22;4095;48.942;9.104;2023-07-24T12:06:02;22.40;99.90
8105;DHT22;4095;48.942;9.104;2023-07-24T12:08:34;22.30;99.90
8105;DHT22;4095;48.942;9.104;2023-07-24T12:11:00;22.20;99.90
8105;DHT22;4095;48.942;9.104;2023-07-24T12:13:26;22.20;99.90
8105;DHT22;4095;48.942;9.104;2023-07-24T12:15:52;22.10;99.90
8105;DHT22;4095;48.942;9.104;2023-07-24T12:18:18;22.00;99.90
8105;DHT22;4095;48.942;9.104;2023-07-24T12:20:43;22.00;99.90
8105;DHT22;4095;48.942;9.104;2023-07-24T12:23:09;22.00;99.90
8105;DHT22;4095;48.942;9.104;2023-07-24T12:25:35;21.90;99.90
8105;DHT22;4095;48.942;9.104;2023-07-24T12:28:00;21.90;99.90
8105;DHT22;4095;48.942;9.104;2023-07-24T12:30:26;21.90;99.90
8105;DHT22;4095;48.942;9.104;2023-07-24T12:32:52;21.90;99.90
8105;DHT22;4095;48.942;9.104;2023-07-24T12:35:17;21.80;99.90
8105;DHT22;4095;48.942;9.104;2023-07-24T12:37:44;21.80;99.90
8105;DHT22;4095;48.942;9.104;2023-07-24T12:40:11;21.80;99.90
8105;DHT22;4095;48.942;9.104;2023-07-24T12:42:37;21.70;99.90
8105;DHT22;4095;48.942;9.104;2023-07-24T12:45:03;21.70;99.90
8105;DHT22;4095;48.942;9.104;2023-07-24T12:47:30;21.70;99.90
8105;DHT22;4095;48.942;9.104;2023-07-24T12:49:57;21.70;99.90
8105;DHT22;4095;48.942;9.104;2023-07-24T12:52:23;21.70;99.90
8105;DHT22;4095;48.942;9.104;2023-07-24T12:54:49;21.70;99.90
8105;DHT22;4095;48.942;9.104;2023-07-24T12:57:15;21.70;99.90
8105;DHT22;4095;48.942;9.104;2023-07-24T12:59:40;21.70;99.90
8105;DHT22;4095;48.942;9.104;2023-07-24T13:02:06;21.70;99.90
8105;DHT22;4095;48.942;9.104;2023-07-24T13:04:32;21.80;99.90
8105;DHT22;4095;48.942;9.104;2023-07-24T13:06:57;21.80;99.90
8105;DHT22;4095;48.942;9.104;2023-07-24T13:09:24;21.80;99.90
8105;DHT22;4095;48.942;9.104;2023-07-24T13:11:50;21.80;99.90
8105;DHT22;4095;48.942;9.104;2023-07-24T13:14:17;21.70;99.90
8105;DHT22;4095;48.942;9.104;2023-07-24T13:16:42;21.70;99.90
8105;DHT22;4095;48.942;9.104;2023-07-24T13:19:08;21.60;99.90
8105;DHT22;4095;48.942;9.104;2023-07-24T13:21:33;21.50;99.90
8105;DHT22;4095;48.942;9.104;2023-07-24T13:23:59;21.50;99.90
8105;DHT22;4095;48.942;9.104;2023-07-24T13:26:24;21.50;99.90
8105;DHT22;4095;48.942;9.104;2023-07-24T13:28:50;21.50;99.90
8105;DHT22;4095;48.942;9.104;2023-07-24T13:31:18;21.50;99.90
8105;DHT22;4095;48.942;9.104;2023-07-24T13:33:43;21.60;99.90
8105;DHT22;4095;48.942;9.104;2023-07-24T13:36:09;21.70;99.90
8105;DHT22;4095;48.942;9.104;2023-07-24T13:38:35;21.70;99.90
8105;DHT22;4095;48.942;9.104;2023-07-24T13:41:01;21.60;99.90
8105;DHT22;4095;48.942;9.104;2023-07-24T13:43:28;21.60;99.90
8105;DHT22;4095;48.942;9.104;2023-07-24T13:45:54;21.70;99.90
8105;DHT22;4095;48.942;9.104;2023-07-24T13:48:20;21.70;99.90
8105;DHT22;4095;48.942;9.104;2023-07-24T13:50:46;21.80;99.90
8105;DHT22;4095;48.942;9.104;2023-07-24T13:53:11;21.80;99.90
8105;DHT22;4095;48.942;9.104;2023-07-24T13:55:37;21.90;99.90
8105;DHT22;4095;48.942;9.104;2023-07-24T13:58:03;22.00;99.90
8105;DHT22;4095;48.942;9.104;2023-07-24T14:00:28;22.10;99.90
8105;DHT22;4095;48.942;9.104;2023-07-24T14:02:54;22.40;99.90
8105;DHT22;4095;48.942;9.104;2023-07-24T14:05:20;22.60;99.90
8105;DHT22;4095;48.942;9.104;2023-07-24T14:07:45;22.80;99.90
8105;DHT22;4095;48.942;9.104;2023-07-24T14:10:11;23.10;99.90
8105;DHT22;4095;48.942;9.104;2023-07-24T14:12:36;23.10;99.90
8105;DHT22;4095;48.942;9.104;2023-07-24T14:15:02;23.20;99.90
8105;DHT22;4095;48.942;9.104;2023-07-24T14:17:28;23.20;99.90
8105;DHT22;4095;48.942;9.104;2023-07-24T14:19:54;23.30;99.90
8105;DHT22;4095;48.942;9.104;2023-07-24T14:22:20;23.30;99.90
8105;DHT22;4095;48.942;9.104;2023-07-24T14:24:46;23.40;99.90
8105;DHT22;4095;48.942;9.104;2023-07-24T14:27:13;23.50;99.90
8105;DHT22;4095;48.942;9.104;2023-07-24T14:29:39;23.50;99.90
8105;DHT22;4095;48.942;9.104;2023-07-24T14:32:05;23.60;99.90
8105;DHT22;4095;48.942;9.104;2023-07-24T14:34:31;23.60;99.90
8105;DHT22;4095;48.942;9.104;2023-07-24T14:36:56;23.70;99.90
8105;DHT22;4095;48.942;9.104;2023-07-24T14:39:22;23.70;99.90
8105;DHT22;4095;48.942;9.104;2023-07-24T14:41:47;23.80;99.90
8105;DHT22;4095;48.942;9.104;2023-07-24T14:44:13;23.80;99.90
8105;DHT22;4095;48.942;9.104;2023-07-24T14:46:39;23.90;99.90
8105;DHT22;4095;48.942;9.104;2023-07-24T14:49:04;24.00;99.90
8105;DHT22;4095;48.942;9.104;2023-07-24T14:51:30;24.00;99.90
8105;DHT22;4095;48.942;9.104;2023-07-24T14:53:55;24.00;99.90
8105;DHT22;4095;48.942;9.104;2023-07-24T14:56:21;24.00;99.90
8105;DHT22;4095;48.942;9.104;2023-07-24T14:58:47;24.00;99.90
8105;DHT22;4095;48.942;9.104;2023-07-24T15:01:13;24.00;99.90
8105;DHT22;4095;48.942;9.104;2023-07-24T15:03:38;24.00;99.90
8105;DHT22;4095;48.942;9.104;2023-07-24T15:06:04;24.00;99.90
8105;DHT22;4095;48.942;9.104;2023-07-24T15:08:35;24.10;99.90
8105;DHT22;4095;48.942;9.104;2023-07-24T15:11:01;24.10;99.90
8105;DHT22;4095;48.942;9.104;2023-07-24T15:13:27;24.10;99.90
8105;DHT22;4095;48.942;9.104;2023-07-24T15:15:53;24.20;99.90
8105;DHT22;4095;48.942;9.104;2023-07-24T15:18:18;24.30;99.90
8105;DHT22;4095;48.942;9.104;2023-07-24T15:20:44;24.30;99.90
8105;DHT22;4095;48.942;9.104;2023-07-24T15:23:10;24.30;99.90
8105;DHT22;4095;48.942;9.104;2023-07-24T15:25:36;24.40;99.90
8105;DHT22;4095;48.942;9.104;2023-07-24T15:28:01;24.50;99.90
8105;DHT22;4095;48.942;9.104;2023-07-24T15:30:27;24.60;99.90
8105;DHT22;4095;48.942;9.104;2023-07-24T15:32:52;24.60;99.90
8105;DHT22;4095;48.942;9.104;2023-07-24T15:35:18;24.60;99.90
8105;DHT22;4095;48.942;9.104;2023-07-24T15:37:44;24.50;99.90
8105;DHT22;4095;48.942;9.104;2023-07-24T15:40:10;24.40;99.90
8105;DHT22;4095;48.942;9.104;2023-07-24T15:42:36;24.40;99.90
8105;DHT22;4095;48.942;9.104;2023-07-24T15:45:02;24.30;99.90
8105;DHT22;4095;48.942;9.104;2023-07-24T15:47:28;24.20;99.90
8105;DHT22;4095;48.942;9.104;2023-07-24T15:49:54;24.20;99.90
8105;DHT22;4095;48.942;9.104;2023-07-24T15:52:19;24.10;99.90
8105;DHT22;4095;48.942;9.104;2023-07-24T15:54:45;24.10;99.90
8105;DHT22;4095;48.942;9.104;2023-07-24T15:57:11;24.00;99.90
8105;DHT22;4095;48.942;9.104;2023-07-24T15:59:36;23.90;99.90